Time;durP1;ratioP1;P1;durP2;ratioP2;P2;SDS_P1;SDS_P2;PMS_P1;PMS_P2;Temp;Humidity;BMP_temperature;BMP_pressure;BME280_temperature;BME280_humidity;BME280_pressure;Samples;Min_cycle;Max_cycle;Signal;HPM_P1;HPM_P2
2024/03/05 00:01:18;;;;;;;62.20;42.53;;;;;;;10.33;63.91;99738.78;6102853;22;100187;-89
2024/03/05 00:03:45;;;;;;;68.93;43.65;;;;;;;10.52;63.58;99738.81;6127753;22;96667;-88
2024/03/05 00:06:11;;;;;;;59.38;40.55;;;;;;;10.62;62.93;99741.00;6127864;22;96805;-89
2024/03/05 00:08:36;;;;;;;54.63;40.58;;;;;;;10.68;62.99;99742.50;6077853;22;99465;-89
2024/03/05 00:11:03;;;;;;;58.50;38.25;;;;;;;10.63;62.49;99720.84;6102499;22;101050;-89
2024/03/05 00:13:29;;;;;;;54.90;40.83;;;;;;;10.38;62.77;99684.31;6127852;22;96650;-89
2024/03/05 00:15:57;;;;;;;58.08;40.25;;;;;;;10.73;63.28;99742.28;6078506;22;97087;-88
2024/03/05 00:18:22;;;;;;;58.40;39.78;;;;;;;10.65;63.26;99745.25;6120861;23;97814;-88
2024/03/05 00:20:48;;;;;;;54.80;41.08;;;;;;;10.55;62.80;99744.78;6072245;23;101220;-88
2024/03/05 00:23:13;;;;;;;55.20;40.63;;;;;;;10.36;63.46;99747.34;6096421;23;97052;-88
2024/03/05 00:25:39;;;;;;;58.30;41.28;;;;;;;10.30;63.85;99746.78;6122392;23;96675;-88
2024/03/05 00:28:05;;;;;;;55.10;39.15;;;;;;;10.33;63.69;99744.88;6096887;23;100543;-88
2024/03/05 00:30:31;;;;;;;56.83;39.22;;;;;;;10.28;63.17;99722.38;6097177;23;100286;-88
2024/03/05 00:32:57;;;;;;;62.80;42.00;;;;;;;10.31;63.27;99746.69;6072537;23;97036;-87
2024/03/05 00:35:23;;;;;;;53.75;39.45;;;;;;;10.38;63.28;99752.53;6097819;23;97214;-88
2024/03/05 00:37:50;;;;;;;54.42;36.83;;;;;;;10.09;63.31;99743.22;6097285;23;100550;-88
2024/03/05 00:40:15;;;;;;;58.22;39.00;;;;;;;10.12;63.65;99741.34;6073211;23;100039;-88
2024/03/05 00:42:41;;;;;;;62.88;39.95;;;;;;;10.33;63.40;99752.72;6072969;23;96658;-88
2024/03/05 00:45:07;;;;;;;59.08;38.63;;;;;;;10.33;62.95;99763.22;6122849;23;96942;-88
2024/03/05 00:47:33;;;;;;;54.08;38.58;;;;;;;10.32;62.88;99764.13;6071783;23;100318;-87
2024/03/05 00:50:03;;;;;;;53.00;37.55;;;;;;;10.45;62.75;99767.09;6097013;23;99342;-88
2024/03/05 00:52:30;;;;;;;62.05;39.17;;;;;;;10.16;63.29;99760.41;6097811;23;96629;-88
2024/03/05 00:54:57;;;;;;;57.20;38.45;;;;;;;10.21;63.20;99761.09;6097520;23;97027;-88
2024/03/05 00:57:23;;;;;;;66.22;38.80;;;;;;;10.33;62.77;99773.72;6121759;23;96757;-88
2024/03/05 00:59:48;;;;;;;68.78;40.55;;;;;;;9.99;63.62;99771.59;6123215;22;96877;-88
2024/03/05 01:02:14;;;;;;;64.25;40.33;;;;;;;10.01;63.88;99771.53;6096613;23;96629;-87
2024/03/05 01:04:40;;;;;;;67.78;42.15;;;;;;;9.98;64.18;99765.50;6096516;23;96825;-90
2024/03/05 01:07:06;;;;;;;62.05;41.42;;;;;;;9.74;64.84;99756.84;6120506;23;96723;-87
2024/03/05 01:09:34;;;;;;;69.45;42.33;;;;;;;9.97;64.73;99781.28;6095799;23;97840;-89
2024/03/05 01:11:59;;;;;;;80.53;42.75;;;;;;;9.89;65.18;99768.50;6095047;23;96808;-88
2024/03/05 01:14:25;;;;;;;63.60;42.50;;;;;;;10.03;64.45;99765.28;6119403;23;96790;-88
2024/03/05 01:16:51;;;;;;;69.57;41.63;;;;;;;10.17;63.60;99760.34;6071183;23;99492;-89
2024/03/05 01:19:17;;;;;;;67.25;40.72;;;;;;;10.17;63.41;99764.72;6099779;22;97405;-89
2024/03/05 01:21:42;;;;;;;65.07;39.17;;;;;;;10.17;63.65;99765.59;6100340;22;96697;-89
2024/03/05 01:24:11;;;;;;;66.68;40.67;;;;;;;10.22;63.54;99764.56;6099859;22;97206;-89
2024/03/05 01:26:43;;;;;;;68.80;42.60;;;;;;;10.15;63.33;99763.94;6124712;22;98639;-89
2024/03/05 01:29:12;;;;;;;71.38;42.15;;;;;;;10.25;62.96;99777.53;6101517;22;97233;-90
2024/03/05 01:31:38;;;;;;;68.78;43.80;;;;;;;10.16;63.67;99770.91;6101752;22;96684;-89
2024/03/05 01:34:05;;;;;;;69.65;39.95;;;;;;;10.15;63.02;99770.06;6104171;22;96825;-90
2024/03/05 01:36:31;;;;;;;61.80;40.63;;;;;;;10.08;63.40;99763.34;6101304;22;99277;-89
2024/03/05 01:38:57;;;;;;;67.10;41.97;;;;;;;10.02;63.36;99768.84;6101350;22;99622;-90
2024/03/05 01:41:23;;;;;;;68.68;44.38;;;;;;;9.81;64.21;99769.72;6127280;22;97755;-89
2024/03/05 01:43:48;;;;;;;68.85;43.17;;;;;;;9.83;63.88;99760.00;6101987;22;96696;-89
2024/03/05 01:46:16;;;;;;;67.95;41.42;;;;;;;9.95;63.80;99768.25;6102485;22;96716;-90
2024/03/05 01:48:43;;;;;;;70.80;41.83;;;;;;;10.04;63.57;99766.16;6076028;22;100931;-89
2024/03/05 01:51:14;;;;;;;62.47;39.35;;;;;;;9.97;64.07;99774.25;6153175;22;96623;-90
2024/03/05 01:53:41;;;;;;;61.80;40.22;;;;;;;9.93;64.02;99764.81;6127599;22;96648;-90
2024/03/05 01:56:07;;;;;;;60.60;39.72;;;;;;;10.05;63.75;99776.56;6126509;22;97799;-90
2024/03/05 01:58:33;;;;;;;64.22;39.33;;;;;;;9.95;63.70;99767.41;6152964;22;97996;-89
2024/03/05 02:00:59;;;;;;;52.22;36.47;;;;;;;10.13;63.18;99776.28;6126329;22;97141;-89
2024/03/05 02:03:25;;;;;;;57.10;36.95;;;;;;;9.95;62.90;99749.88;6101171;22;96645;-90
2024/03/05 02:05:50;;;;;;;54.13;36.42;;;;;;;10.03;62.57;99760.03;6101449;22;100219;-90
2024/03/05 02:08:21;;;;;;;49.90;36.28;;;;;;;10.00;63.32;99772.44;6126081;22;96740;-88
2024/03/05 02:10:48;;;;;;;54.20;36.63;;;;;;;10.19;63.07;99783.91;6101950;22;96620;-89
2024/03/05 02:13:13;;;;;;;56.53;38.60;;;;;;;10.05;63.06;99760.00;6101405;22;97341;-90
2024/03/05 02:15:39;;;;;;;61.22;38.15;;;;;;;10.01;63.35;99761.06;6101403;22;97530;-88
2024/03/05 02:18:07;;;;;;;56.72;38.90;;;;;;;9.94;63.34;99777.00;6101521;22;100408;-89
2024/03/05 02:20:33;;;;;;;59.97;36.95;;;;;;;9.99;63.64;99766.34;6128622;22;97105;-88
2024/03/05 02:22:59;;;;;;;56.90;37.20;;;;;;;10.00;63.63;99780.31;6126344;22;96805;-90
2024/03/05 02:25:25;;;;;;;65.47;37.45;;;;;;;10.08;63.76;99779.06;6126054;22;98078;-88
2024/03/05 02:27:51;;;;;;;57.92;35.95;;;;;;;9.98;63.46;99775.13;6152274;22;96666;-89
2024/03/05 02:30:17;;;;;;;54.13;35.30;;;;;;;10.09;64.02;99791.25;6101603;22;96934;-89
2024/03/05 02:32:43;;;;;;;54.40;36.10;;;;;;;9.90;63.99;99782.44;6101218;22;97079;-88
2024/03/05 02:35:09;;;;;;;61.13;36.33;;;;;;;10.11;63.97;99786.81;6126523;22;97110;-89
2024/03/05 02:37:38;;;;;;;65.03;37.85;;;;;;;10.10;63.86;99792.13;6125941;22;97507;-90
2024/03/05 02:40:08;;;;;;;58.10;38.47;;;;;;;10.02;63.66;99783.72;6101477;22;97094;-89
2024/03/05 02:42:35;;;;;;;54.67;37.90;;;;;;;9.96;63.69;99780.44;6100879;22;97100;-89
2024/03/05 02:45:04;;;;;;;57.05;37.97;;;;;;;9.95;64.01;99786.59;6101165;22;100704;-89
2024/03/05 02:47:34;;;;;;;59.63;38.30;;;;;;;10.04;63.76;99805.50;6102040;22;97074;-88
2024/03/05 02:50:00;;;;;;;59.10;39.58;;;;;;;10.06;63.49;99806.28;6100270;22;97064;-90
2024/03/05 02:52:28;;;;;;;70.40;40.97;;;;;;;9.95;63.99;99807.56;6125778;22;96830;-90
2024/03/05 02:54:54;;;;;;;67.40;42.42;;;;;;;9.90;64.59;99817.38;6126300;22;97917;-89
2024/03/05 02:57:19;;;;;;;71.65;44.05;;;;;;;9.89;64.33;99804.31;6126325;22;98129;-89
2024/03/05 02:59:45;;;;;;;71.68;43.67;;;;;;;9.63;64.60;99766.00;6101440;22;96635;-90
2024/03/05 03:02:11;;;;;;;80.95;45.17;;;;;;;9.79;64.25;99800.34;6152305;22;96759;-89
2024/03/05 03:04:37;;;;;;;73.80;42.92;;;;;;;9.80;64.84;99810.78;6101083;22;100675;-89
2024/03/05 03:07:03;;;;;;;75.28;44.38;;;;;;;9.84;64.35;99820.25;6126779;22;98253;-90
2024/03/05 03:09:28;;;;;;;77.07;43.63;;;;;;;9.85;64.56;99821.94;6101538;22;96670;-89
2024/03/05 03:11:55;;;;;;;67.63;41.13;;;;;;;9.90;64.43;99821.78;6127763;22;96710;-88
2024/03/05 03:14:21;;;;;;;72.85;40.25;;;;;;;9.93;64.22;99817.25;6101175;22;97192;-89
2024/03/05 03:16:49;;;;;;;59.92;39.92;;;;;;;9.85;64.65;99821.09;6102241;22;97438;-90
2024/03/05 03:19:16;;;;;;;69.05;42.60;;;;;;;9.54;65.11;99803.94;6101687;22;97022;-89
2024/03/05 03:21:42;;;;;;;66.97;41.83;;;;;;;9.55;65.31;99815.28;6102898;22;96734;-90
2024/03/05 03:24:11;;;;;;;72.28;41.97;;;;;;;9.65;64.56;99811.38;6126840;22;97470;-90
2024/03/05 03:26:38;;;;;;;71.47;42.88;;;;;;;9.65;64.41;99806.13;6102956;22;97201;-89
2024/03/05 03:29:07;;;;;;;67.32;38.70;;;;;;;9.29;65.29;99827.56;6100252;22;96715;-89
2024/03/05 03:31:32;;;;;;;62.78;40.22;;;;;;;9.25;65.26;99811.13;6101468;22;96742;-90
2024/03/05 03:33:58;;;;;;;58.10;37.95;;;;;;;9.09;65.26;99796.00;6100357;22;100201;-90
2024/03/05 03:36:24;;;;;;;62.38;40.40;;;;;;;9.20;65.50;99826.13;6126411;22;97633;-89
2024/03/05 03:38:51;;;;;;;62.15;38.90;;;;;;;9.37;65.43;99820.28;6101331;22;97041;-89
2024/03/05 03:41:19;;;;;;;72.07;40.97;;;;;;;9.55;64.99;99829.22;6102595;22;96762;-90
2024/03/05 03:43:45;;;;;;;70.70;39.20;;;;;;;9.65;64.57;99824.47;6127478;22;97462;-89
2024/03/05 03:46:12;;;;;;;62.75;40.65;;;;;;;9.60;64.63;99824.66;6102079;22;100126;-89
2024/03/05 03:48:39;;;;;;;62.83;41.28;;;;;;;9.56;65.01;99823.06;6102005;22;97449;-90
2024/03/05 03:51:05;;;;;;;60.13;38.42;;;;;;;9.68;64.66;99826.97;6127263;22;97040;-89
2024/03/05 03:53:33;;;;;;;65.28;40.72;;;;;;;9.59;65.03;99827.31;6101229;22;100612;-89
2024/03/05 03:55:59;;;;;;;65.40;40.78;;;;;;;9.50;65.48;99828.53;6129292;22;96680;-89
2024/03/05 03:58:25;;;;;;;52.20;37.90;;;;;;;9.49;65.29;99821.59;6102310;22;96660;-89
2024/03/05 04:00:50;;;;;;;58.45;38.10;;;;;;;9.57;64.59;99829.16;6127342;22;96828;-88
2024/03/05 04:03:19;;;;;;;58.22;36.90;;;;;;;9.35;65.69;99829.09;6101192;22;100515;-89
2024/03/05 04:05:45;;;;;;;51.55;35.67;;;;;;;9.55;65.73;99833.59;6127034;22;97806;-88
2024/03/05 04:08:11;;;;;;;54.55;35.42;;;;;;;9.52;64.96;99819.69;6102054;22;96814;-89
2024/03/05 04:10:39;;;;;;;51.47;36.28;;;;;;;9.64;64.70;99828.88;6153597;22;96584;-89
2024/03/05 04:13:04;;;;;;;52.15;36.28;;;;;;;9.44;64.43;99806.03;6126799;22;97331;-88
2024/03/05 04:15:30;;;;;;;44.22;32.50;;;;;;;9.53;64.93;99847.59;6101536;22;98690;-88
2024/03/05 04:17:58;;;;;;;46.10;33.20;;;;;;;9.54;65.11;99822.28;6101842;22;97082;-89
2024/03/05 04:20:25;;;;;;;44.47;33.17;;;;;;;9.60;65.01;99837.78;6073699;23;97280;-87
2024/03/05 04:22:51;;;;;;;57.25;34.10;;;;;;;9.49;65.27;99822.44;6072451;23;98009;-89
2024/03/05 04:25:21;;;;;;;41.55;32.95;;;;;;;9.52;65.16;99848.53;6123596;23;96577;-88
2024/03/05 04:27:47;;;;;;;43.83;31.88;;;;;;;9.56;65.26;99851.03;6071615;23;96708;-89
2024/03/05 04:30:13;;;;;;;37.47;31.73;;;;;;;9.35;65.59;99848.28;6072702;23;96906;-88
2024/03/05 04:32:53;;;;;;;44.10;31.15;;;;;;;9.17;65.95;99846.34;6096383;23;97223;-87
2024/03/05 04:35:19;;;;;;;44.63;31.85;;;;;;;9.34;65.40;99856.19;6074794;23;100386;-89
2024/03/05 04:37:45;;;;;;;43.67;32.53;;;;;;;9.36;65.58;99847.38;6122383;23;96613;-88
2024/03/05 04:40:11;;;;;;;44.95;30.55;;;;;;;9.31;65.52;99846.72;6071796;23;97129;-89
2024/03/05 04:42:37;;;;;;;45.67;31.23;;;;;;;9.26;65.28;99833.75;6121505;23;97898;-89
2024/03/05 04:45:03;;;;;;;41.65;32.25;;;;;;;9.32;65.01;99858.03;6072020;23;100376;-89
2024/03/05 04:47:29;;;;;;;46.33;32.70;;;;;;;9.29;65.18;99853.75;6077984;23;97156;-89
2024/03/05 04:49:55;;;;;;;43.60;31.05;;;;;;;9.30;65.73;99851.06;6074497;23;96778;-88
2024/03/05 04:52:21;;;;;;;47.85;31.70;;;;;;;9.38;65.43;99852.56;6097749;23;96971;-90
2024/03/05 04:54:47;;;;;;;46.95;32.85;;;;;;;9.28;65.18;99852.91;6075194;23;100505;-90
2024/03/05 04:57:13;;;;;;;44.40;33.47;;;;;;;9.07;65.66;99844.06;6097333;23;96720;-87
2024/03/05 04:59:40;;;;;;;53.60;35.53;;;;;;;8.99;66.26;99863.56;6072195;23;97108;-87
2024/03/05 05:02:06;;;;;;;48.97;35.13;;;;;;;9.07;65.60;99851.03;6071166;23;100116;-89
2024/03/05 05:04:37;;;;;;;46.65;32.70;;;;;;;9.07;65.66;99853.66;6095752;23;97503;-89
2024/03/05 05:07:07;;;;;;;44.70;30.58;;;;;;;9.09;65.24;99844.00;6071547;23;96705;-89
2024/03/05 05:09:41;;;;;;;45.90;30.85;;;;;;;9.20;65.52;99860.19;6072110;23;97313;-90
2024/03/05 05:12:07;;;;;;;45.42;29.80;;;;;;;9.26;65.07;99859.97;6071120;23;99742;-88
2024/03/05 05:14:33;;;;;;;45.72;31.85;;;;;;;9.13;65.04;99848.19;6070159;23;100352;-89
2024/03/05 05:16:59;;;;;;;47.22;31.30;;;;;;;8.96;65.16;99843.56;6071113;23;96600;-90
2024/03/05 05:19:25;;;;;;;41.60;31.67;;;;;;;8.94;65.79;99868.09;6082808;23;96847;-91
2024/03/05 05:21:51;;;;;;;49.40;35.20;;;;;;;8.82;65.61;99854.50;6120661;23;97774;-89
2024/03/05 05:24:18;;;;;;;48.70;35.45;;;;;;;8.90;65.54;99848.16;6119939;23;97904;-91
2024/03/05 05:26:44;;;;;;;51.13;35.55;;;;;;;8.92;65.51;99849.81;6118054;23;97399;-89
2024/03/05 05:29:09;;;;;;;47.13;36.70;;;;;;;9.03;64.84;99879.09;6092826;23;96892;-90
2024/03/05 05:31:36;;;;;;;47.33;31.35;;;;;;;9.12;65.15;99871.84;6092085;23;100636;-89
2024/03/05 05:34:02;;;;;;;44.50;29.50;;;;;;;8.87;65.54;99866.56;6117568;23;100579;-90
2024/03/05 05:36:29;;;;;;;50.10;35.42;;;;;;;8.83;65.57;99860.59;6118576;23;96633;-90
2024/03/05 05:38:55;;;;;;;45.63;34.28;;;;;;;8.92;65.15;99867.28;6069085;23;96790;-91
2024/03/05 05:41:21;;;;;;;47.38;33.30;;;;;;;9.01;65.39;99869.56;6093985;23;97896;-91
2024/03/05 05:43:48;;;;;;;42.40;30.70;;;;;;;9.10;65.09;99884.97;6119735;23;96720;-87
2024/03/05 05:46:14;;;;;;;45.55;34.45;;;;;;;9.16;65.06;99886.50;6118796;23;97011;-86
2024/03/05 05:48:48;;;;;;;48.78;35.92;;;;;;;8.98;65.05;99861.84;6068951;23;96993;-85
2024/03/05 05:51:15;;;;;;;55.60;36.58;;;;;;;9.12;65.24;99882.31;6094393;23;100869;-86
2024/03/05 05:53:40;;;;;;;49.13;36.65;;;;;;;9.01;65.43;99882.66;6092701;23;100595;-86
2024/03/05 05:56:06;;;;;;;46.72;34.13;;;;;;;8.98;65.71;99888.00;6093489;23;96744;-87
2024/03/05 05:58:35;;;;;;;52.28;35.22;;;;;;;8.91;65.61;99891.75;6120018;22;97238;-85
2024/03/05 06:01:05;;;;;;;43.38;32.65;;;;;;;9.00;66.22;99889.66;6117876;23;97563;-75
2024/03/05 06:03:36;;;;;;;45.67;31.35;;;;;;;9.01;65.22;99878.28;6117532;23;97274;-79
2024/03/05 06:06:03;;;;;;;47.20;32.85;;;;;;;9.10;65.40;99889.34;6093069;23;97027;-87
2024/03/05 06:08:29;;;;;;;50.60;34.15;;;;;;;9.14;65.50;99890.97;6117141;23;96964;-78
2024/03/05 06:10:56;;;;;;;43.30;35.08;;;;;;;9.09;65.86;99887.66;6094064;23;96747;-84
2024/03/05 06:13:24;;;;;;;47.50;31.40;;;;;;;9.18;65.68;99897.81;6118708;23;97897;-84
2024/03/05 06:15:50;;;;;;;41.28;32.78;;;;;;;9.13;65.54;99891.84;6095606;23;96658;-85
2024/03/05 06:18:16;;;;;;;41.63;30.52;;;;;;;9.18;65.71;99905.66;6099462;22;97365;-85
2024/03/05 06:20:43;;;;;;;38.53;30.85;;;;;;;9.16;65.10;99905.72;6100407;22;100249;-86
2024/03/05 06:23:11;;;;;;;37.28;31.27;;;;;;;9.06;65.52;99910.41;6100659;22;97372;-85
2024/03/05 06:25:37;;;;;;;34.67;27.60;;;;;;;8.87;65.97;99893.59;6126034;22;96710;-85
2024/03/05 06:28:03;;;;;;;33.50;28.45;;;;;;;8.95;65.73;99911.69;6100135;22;96767;-85
2024/03/05 06:30:28;;;;;;;33.15;27.75;;;;;;;8.94;65.73;99899.50;6099703;22;97841;-85
2024/03/05 06:32:54;;;;;;;34.30;28.08;;;;;;;9.03;65.84;99913.13;6124261;22;97012;-85
2024/03/05 06:35:25;;;;;;;35.13;28.17;;;;;;;9.07;65.51;99926.97;6125546;22;96950;-85
2024/03/05 06:37:50;;;;;;;34.50;27.00;;;;;;;8.91;65.58;99900.47;6075847;22;96770;-85
2024/03/05 06:40:19;;;;;;;36.00;28.50;;;;;;;8.95;65.47;99923.00;6100127;22;97252;-86
2024/03/05 06:42:52;;;;;;;37.03;27.45;;;;;;;8.93;65.71;99919.59;6124016;22;99946;-85
2024/03/05 06:45:27;;;;;;;38.50;28.02;;;;;;;9.02;65.41;99928.91;6101991;22;96796;-85
2024/03/05 06:47:56;;;;;;;39.17;28.85;;;;;;;8.86;65.37;99927.69;6127119;22;96674;-86
2024/03/05 06:50:33;;;;;;;36.70;27.08;;;;;;;8.93;64.99;99934.44;6125429;22;96702;-81
2024/03/05 06:58:41;;;;;;;44.90;26.48;;;;;;;8.94;65.13;99930.91;6132041;22;97107;-93
2024/03/05 07:01:07;;;;;;;38.28;27.27;;;;;;;8.87;64.56;99927.63;6077375;22;100766;-94
2024/03/05 07:03:38;;;;;;;37.25;26.08;;;;;;;9.01;65.01;99943.72;6077126;22;99668;-93
2024/03/05 07:06:07;;;;;;;34.95;27.73;;;;;;;8.99;64.89;99945.56;6127312;22;97083;-95
2024/03/05 07:08:43;;;;;;;41.75;29.27;;;;;;;9.03;64.48;99949.78;6101073;22;96797;-92
2024/03/05 07:11:10;;;;;;;32.38;27.67;;;;;;;9.03;64.60;99941.06;6148535;22;97698;-94
2024/03/05 07:13:43;;;;;;;33.28;26.63;;;;;;;8.94;64.62;99936.16;6101909;22;100745;-93
2024/03/05 07:16:18;;;;;;;41.65;27.48;;;;;;;8.81;64.86;99960.13;6126416;22;97110;-93
2024/03/05 07:18:44;;;;;;;38.10;27.15;;;;;;;8.79;65.32;99940.13;6103524;22;97366;-93
2024/03/05 07:21:11;;;;;;;37.80;26.98;;;;;;;8.87;64.72;99945.94;6100991;22;97760;-95
2024/03/05 07:23:39;;;;;;;35.88;28.08;;;;;;;8.90;64.80;99955.47;6101846;22;99470;-93
2024/03/05 07:26:05;;;;;;;37.78;27.88;;;;;;;8.89;64.61;99959.00;6102567;22;97050;-95
2024/03/05 07:28:31;;;;;;;33.38;26.00;;;;;;;8.65;64.96;99929.25;6079822;22;96736;-94
2024/03/05 07:30:56;;;;;;;45.03;28.17;;;;;;;8.49;65.05;99911.41;6100118;22;97530;-93
2024/03/05 07:33:22;;;;;;;41.03;28.83;;;;;;;8.73;64.91;99935.97;6124932;22;97788;-92
2024/03/05 07:35:48;;;;;;;36.75;27.80;;;;;;;8.83;64.88;99971.38;6076056;22;96681;-94
2024/03/05 07:38:17;;;;;;;38.33;28.88;;;;;;;8.88;64.48;99955.53;6100272;22;97205;-94
2024/03/05 07:40:45;;;;;;;38.85;27.40;;;;;;;9.10;64.21;99967.91;6074664;22;99319;-92
2024/03/05 07:43:11;;;;;;;36.08;22.35;;;;;;;8.96;63.99;99942.19;6124291;22;97760;-90
2024/03/05 07:45:37;;;;;;;30.88;18.88;;;;;;;8.94;63.87;99942.25;6126067;22;96661;-92
2024/03/05 07:48:03;;;;;;;34.10;21.27;;;;;;;9.20;63.84;99972.78;6123946;22;96683;-94
2024/03/05 07:50:29;;;;;;;32.47;20.05;;;;;;;8.91;63.42;99947.59;6095797;22;99375;-92
2024/03/05 07:52:57;;;;;;;29.48;18.60;;;;;;;8.87;63.59;99940.72;6123702;22;97462;-91
2024/03/05 07:55:23;;;;;;;31.58;18.70;;;;;;;9.18;63.84;99982.44;6124627;22;96802;-92
2024/03/05 07:57:52;;;;;;;32.22;18.70;;;;;;;9.25;62.98;99980.47;6099831;22;97063;-91
2024/03/05 08:00:19;;;;;;;28.92;18.42;;;;;;;9.29;62.96;99969.00;6124329;22;96794;-93
2024/03/05 08:02:45;;;;;;;33.47;19.08;;;;;;;9.27;62.40;99989.13;6150715;22;97557;-94
2024/03/05 08:05:17;;;;;;;30.65;17.23;;;;;;;9.02;62.31;99929.75;6098878;22;96721;-91
2024/03/05 08:07:46;;;;;;;32.50;18.77;;;;;;;9.48;62.07;99991.03;6076479;22;96971;-85
2024/03/05 08:10:12;;;;;;;28.67;18.50;;;;;;;9.27;62.38;99955.94;6124985;22;97945;-87
2024/03/05 08:12:42;;;;;;;27.80;18.10;;;;;;;9.48;62.07;99991.03;6123087;22;96997;-85
2024/03/05 08:15:12;;;;;;;27.08;17.88;;;;;;;9.28;62.34;99988.25;6073917;22;96754;-88
2024/03/05 08:17:39;;;;;;;35.30;18.30;;;;;;;9.33;62.05;99986.31;6097880;22;97153;-87
2024/03/05 08:20:07;;;;;;;32.92;15.68;;;;;;;9.27;61.52;99976.91;6090863;23;99107;-86
2024/03/05 08:22:35;;;;;;;23.98;15.18;;;;;;;9.33;61.31;99990.69;6117408;23;98174;-89
2024/03/05 08:25:09;;;;;;;23.98;15.50;;;;;;;9.37;61.16;99987.94;6093977;23;96782;-88
2024/03/05 08:27:38;;;;;;;28.67;16.35;;;;;;;9.37;61.27;99974.00;6070474;23;96737;-87
2024/03/05 08:30:08;;;;;;;23.65;15.35;;;;;;;9.35;61.27;99981.88;6091109;23;97600;-88
2024/03/05 08:32:37;;;;;;;21.45;15.50;;;;;;;9.42;60.92;99980.75;6069052;23;99890;-85
2024/03/05 08:35:09;;;;;;;22.65;14.52;;;;;;;9.36;59.95;99967.00;6094217;23;97106;-89
2024/03/05 08:37:35;;;;;;;22.83;15.02;;;;;;;9.44;60.37;99970.22;6095005;23;97083;-88
2024/03/05 08:40:03;;;;;;;39.78;16.40;;;;;;;9.51;60.44;99988.31;6070109;23;99217;-87
2024/03/05 08:42:28;;;;;;;27.77;16.35;;;;;;;9.29;60.34;99946.28;6095692;23;100395;-87
2024/03/05 08:44:54;;;;;;;23.83;14.93;;;;;;;9.39;60.25;99965.13;6095786;23;96662;-85
2024/03/05 08:47:20;;;;;;;28.67;15.85;;;;;;;9.68;59.05;99994.72;6121735;23;96755;-88
2024/03/05 08:49:50;;;;;;;25.80;14.73;;;;;;;9.85;58.41;99981.84;6095832;23;100406;-89
2024/03/05 08:52:15;;;;;;;22.48;13.82;;;;;;;10.02;56.97;99988.25;6097371;23;97836;-88
2024/03/05 08:54:42;;;;;;;19.10;12.13;;;;;;;10.01;56.63;100007.53;6096999;23;96733;-88
2024/03/05 08:57:08;;;;;;;24.88;13.05;;;;;;;9.99;55.82;99978.75;6093714;23;96766;-87
2024/03/05 08:59:34;;;;;;;23.02;14.30;;;;;;;9.86;55.97;99991.44;6093416;23;97720;-87
2024/03/05 09:01:59;;;;;;;20.67;14.18;;;;;;;9.91;56.51;99996.50;6111496;23;97832;-87
2024/03/05 09:04:25;;;;;;;26.00;14.85;;;;;;;10.25;56.75;99987.41;6116390;23;97101;-87
2024/03/05 09:06:50;;;;;;;26.75;14.52;;;;;;;10.36;56.19;99991.34;6090188;23;97332;-86
2024/03/05 09:09:16;;;;;;;25.38;15.80;;;;;;;10.45;56.16;99998.03;6066453;23;98084;-85
2024/03/05 09:11:42;;;;;;;24.10;14.30;;;;;;;10.40;54.99;99994.72;6066291;23;100751;-88
2024/03/05 09:14:08;;;;;;;21.90;13.70;;;;;;;10.25;55.38;99997.91;6114648;23;97236;-86
2024/03/05 09:16:34;;;;;;;20.23;13.02;;;;;;;10.20;55.21;99990.19;6114700;23;97347;-87
2024/03/05 09:19:00;;;;;;;19.55;13.13;;;;;;;10.22;55.05;99993.63;6090371;23;100882;-87
2024/03/05 09:21:26;;;;;;;21.08;12.95;;;;;;;9.92;54.97;100004.34;6115036;23;98014;-86
2024/03/05 09:23:51;;;;;;;20.50;14.45;;;;;;;9.99;55.77;99997.09;6114623;23;97165;-87
2024/03/05 09:26:17;;;;;;;20.95;14.07;;;;;;;10.11;55.41;99991.38;6089751;23;97379;-87
2024/03/05 09:28:42;;;;;;;20.65;13.77;;;;;;;10.25;55.57;100000.53;6090667;23;100153;-86
2024/03/05 09:31:08;;;;;;;23.20;13.98;;;;;;;10.29;55.81;99976.75;6089881;23;97778;-88
2024/03/05 09:33:33;;;;;;;23.00;14.52;;;;;;;10.47;55.17;99988.34;6091216;23;97236;-87
2024/03/05 09:35:59;;;;;;;21.65;14.02;;;;;;;10.60;55.65;99996.56;6065882;23;96910;-88
2024/03/05 09:38:25;;;;;;;27.92;14.15;;;;;;;10.54;55.46;99989.78;6114212;23;97807;-87
2024/03/05 09:40:54;;;;;;;23.98;14.13;;;;;;;10.43;55.44;100003.31;6092718;23;97602;-85
2024/03/05 09:43:21;;;;;;;26.33;14.10;;;;;;;10.49;55.17;99986.47;6120618;23;96660;-86
2024/03/05 09:45:48;;;;;;;30.63;13.98;;;;;;;10.57;54.98;99991.44;6120309;23;96881;-89
2024/03/05 09:48:17;;;;;;;29.23;13.15;;;;;;;10.67;54.74;99997.16;6118360;23;97922;-88
2024/03/05 09:50:43;;;;;;;27.42;13.63;;;;;;;10.62;54.94;99990.34;6119684;23;97702;-83
2024/03/05 09:53:12;;;;;;;21.40;12.68;;;;;;;10.58;53.72;100001.88;6095194;23;97100;-84
2024/03/05 09:55:38;;;;;;;21.15;13.80;;;;;;;10.69;53.03;99988.31;6096894;23;96784;-85
2024/03/05 09:58:10;;;;;;;19.85;13.68;;;;;;;10.64;52.07;99998.16;6120157;23;100750;-84
2024/03/05 10:00:39;;;;;;;25.20;14.40;;;;;;;10.67;52.04;99998.03;6120119;23;97530;-85
2024/03/05 10:03:07;;;;;;;17.85;12.68;;;;;;;10.81;51.65;100016.72;6096026;23;97269;-86
2024/03/05 10:05:33;;;;;;;20.05;12.95;;;;;;;10.93;51.65;100010.09;6071667;23;96901;-86
2024/03/05 10:07:58;;;;;;;21.00;13.55;;;;;;;10.63;51.24;99997.28;6094949;23;97800;-86
2024/03/05 10:10:25;;;;;;;18.73;12.63;;;;;;;10.80;51.67;100014.16;6119719;23;98003;-86
2024/03/05 10:12:50;;;;;;;21.85;13.73;;;;;;;11.12;51.06;99989.22;6095117;23;96697;-85
2024/03/05 10:15:20;;;;;;;21.17;12.68;;;;;;;11.37;51.13;100010.03;6121999;23;96655;-86
2024/03/05 10:17:50;;;;;;;21.48;13.52;;;;;;;11.47;52.45;100005.28;6070703;23;100363;-86
2024/03/05 10:20:26;;;;;;;25.75;13.18;;;;;;;11.74;52.06;100011.09;6075477;22;100736;-91
2024/03/05 10:22:57;;;;;;;22.90;13.30;;;;;;;12.04;54.05;100014.19;6101708;22;97423;-87
2024/03/05 10:25:24;;;;;;;32.85;14.85;;;;;;;11.10;50.53;100020.78;6101415;22;96914;-86
2024/03/05 10:27:50;;;;;;;23.48;14.65;;;;;;;10.86;50.58;100011.28;6099738;22;100331;-86
2024/03/05 10:30:24;;;;;;;26.35;13.40;;;;;;;10.95;50.17;99987.28;6100132;22;100588;-86
2024/03/05 10:33:02;;;;;;;25.70;14.30;;;;;;;10.56;50.11;99995.84;6099849;22;97019;-86
2024/03/05 10:35:29;;;;;;;28.85;14.52;;;;;;;10.57;50.08;100031.66;6100465;22;96710;-86
2024/03/05 10:38:03;;;;;;;21.67;13.63;;;;;;;10.61;50.42;100030.63;6099383;22;97582;-86
2024/03/05 10:40:32;;;;;;;31.23;16.38;;;;;;;10.59;50.45;100002.75;6100544;22;97725;-85
2024/03/05 10:43:04;;;;;;;23.60;14.10;;;;;;;10.84;50.21;100028.88;6099477;22;97068;-86
2024/03/05 10:45:38;;;;;;;30.42;15.30;;;;;;;11.03;50.40;100031.63;6125463;22;96739;-86
2024/03/05 10:48:04;;;;;;;25.10;15.07;;;;;;;11.15;50.28;100027.66;6075182;22;99351;-85
2024/03/05 10:50:30;;;;;;;26.90;14.90;;;;;;;11.29;49.92;100035.81;6075017;22;100515;-86
2024/03/05 10:52:57;;;;;;;31.38;15.18;;;;;;;11.17;49.15;100015.28;6125142;22;97073;-86
2024/03/05 10:55:24;;;;;;;26.15;15.00;;;;;;;11.20;49.19;100030.91;6126033;22;96791;-80
2024/03/05 11:00:38;;;;;;;23.80;14.75;;;;;;;11.36;49.60;100028.53;6103140;22;100668;-83
2024/03/05 11:03:14;;;;;;;22.05;14.55;;;;;;;11.46;49.23;100027.19;6096207;22;97169;-90
2024/03/05 11:05:48;;;;;;;28.98;15.85;;;;;;;11.51;48.37;100020.84;6098615;22;96848;-90
2024/03/05 11:08:16;;;;;;;24.48;14.20;;;;;;;11.48;48.21;100020.13;6127834;22;99470;-86
2024/03/05 11:10:46;;;;;;;20.70;13.75;;;;;;;11.56;47.35;100012.75;6119935;22;97379;-91
2024/03/05 11:13:12;;;;;;;29.85;15.75;;;;;;;11.48;48.48;100038.50;6096392;22;97158;-91
2024/03/05 11:15:39;;;;;;;24.17;15.45;;;;;;;11.60;47.90;100024.00;6094122;22;97261;-88
2024/03/05 11:18:23;;;;;;;22.50;13.98;;;;;;;11.62;47.38;100027.41;6117620;22;97458;-87
2024/03/05 11:20:49;;;;;;;29.17;15.90;;;;;;;11.60;48.85;100040.63;6067748;22;99290;-88
2024/03/05 11:23:15;;;;;;;25.27;16.55;;;;;;;11.46;49.62;100040.34;6093515;22;97271;-89
2024/03/05 11:25:48;;;;;;;34.08;17.88;;;;;;;11.09;50.55;100037.47;6117520;22;97235;-87
2024/03/05 11:28:20;;;;;;;23.60;16.42;;;;;;;11.20;51.35;100039.69;6094201;22;100843;-88